createdAt,value
2018-07-11T00:01:13.629Z,14.28
2018-07-11T00:03:44.640Z,14.24
2018-07-11T00:06:14.918Z,14.31
2018-07-11T00:08:43.285Z,14.23
2018-07-11T00:11:12.120Z,14.25
2018-07-11T00:13:41.761Z,14.37
2018-07-11T00:16:10.797Z,14.28
2018-07-11T00:18:39.168Z,14.22
2018-07-11T00:21:07.718Z,14.17
2018-07-11T00:23:36.558Z,14.21
2018-07-11T00:26:06.405Z,14.22
2018-07-11T00:28:35.333Z,14.15
2018-07-11T00:31:03.793Z,14.12
2018-07-11T00:33:34.601Z,14.02
2018-07-11T00:36:05.361Z,14.05
2018-07-11T00:38:35.768Z,13.99
2018-07-11T00:41:04.699Z,13.93
2018-07-11T00:43:35.834Z,13.96
2018-07-11T00:46:05.666Z,13.83
2018-07-11T00:48:35.318Z,13.83
2018-07-11T00:51:05.551Z,13.75
2018-07-11T00:53:36.716Z,13.69
2018-07-11T00:56:05.795Z,13.62
2018-07-11T00:58:49.263Z,13.58
2018-07-11T01:01:17.727Z,13.44
2018-07-11T01:03:55.710Z,13.37
2018-07-11T01:06:24.076Z,13.32
2018-07-11T01:08:56.481Z,13.26
2018-07-11T01:11:25.414Z,13.18
2018-07-11T01:13:53.845Z,13.14
2018-07-11T01:16:23.558Z,13.09
2018-07-11T01:19:07.985Z,13.08
2018-07-11T01:21:36.850Z,13.05
2018-07-11T01:24:06.273Z,13.05
2018-07-11T01:26:36.650Z,13.04
2018-07-11T01:29:06.908Z,12.95
2018-07-11T01:31:36.388Z,12.91
2018-07-11T01:34:06.993Z,12.88
2018-07-11T01:36:36.220Z,12.82
2018-07-11T01:39:07.105Z,12.72
2018-07-11T01:41:36.342Z,12.64
2018-07-11T01:44:05.781Z,12.58
2018-07-11T01:46:44.104Z,12.55
2018-07-11T01:49:13.425Z,12.63
2018-07-11T01:51:52.948Z,12.61
2018-07-11T01:54:21.376Z,12.61
2018-07-11T01:56:50.769Z,12.52
2018-07-11T01:59:20.065Z,12.57
2018-07-11T02:01:49.498Z,12.51
2018-07-11T02:04:18.756Z,12.47
2018-07-11T02:06:47.117Z,12.43
2018-07-11T02:09:16.643Z,12.43
2018-07-11T02:11:45.285Z,12.44
2018-07-11T02:14:13.664Z,12.45
2018-07-11T02:16:42.753Z,12.49
2018-07-11T02:19:12.509Z,12.45
2018-07-11T02:21:41.755Z,12.42
2018-07-11T02:24:10.110Z,12.40
2018-07-11T02:26:39.409Z,12.45
2018-07-11T02:29:07.746Z,12.53
2018-07-11T02:31:37.014Z,12.67
2018-07-11T02:34:06.238Z,12.72
2018-07-11T02:36:35.973Z,12.65
2018-07-11T02:39:06.391Z,12.64
2018-07-11T02:41:37.124Z,12.55
2018-07-11T02:44:06.525Z,12.48
2018-07-11T02:46:40.901Z,12.41
2018-07-11T02:49:10.286Z,12.40
2018-07-11T02:51:39.468Z,12.34
2018-07-11T02:54:07.830Z,12.46
2018-07-11T02:56:37.129Z,12.39
2018-07-11T02:59:06.051Z,12.35
2018-07-11T03:01:35.726Z,12.45
2018-07-11T03:04:06.065Z,12.37
2018-07-11T03:06:36.671Z,12.34
2018-07-11T03:09:06.006Z,12.32
2018-07-11T03:11:36.293Z,12.43
2018-07-11T03:14:07.058Z,12.40
2018-07-11T03:16:36.050Z,12.41
2018-07-11T03:19:06.065Z,12.44
2018-07-11T03:21:35.728Z,12.40
2018-07-11T03:24:05.509Z,12.36
2018-07-11T03:26:35.868Z,12.41
2018-07-11T03:29:05.001Z,12.42
2018-07-11T03:31:35.480Z,12.42
2018-07-11T03:34:05.401Z,12.41
2018-07-11T03:36:35.717Z,12.48
2018-07-11T03:39:06.350Z,12.50
2018-07-11T03:41:35.678Z,12.59
2018-07-11T03:44:07.131Z,12.74
2018-07-11T03:46:36.128Z,12.78
2018-07-11T03:49:06.117Z,12.82
2018-07-11T03:51:35.709Z,12.83
2018-07-11T03:54:05.453Z,12.88
2018-07-11T03:56:35.211Z,12.97
2018-07-11T03:59:05.833Z,13.05
2018-07-11T04:01:35.120Z,13.08
2018-07-11T04:04:05.521Z,13.16
2018-07-11T04:06:33.913Z,13.24
2018-07-11T04:09:04.335Z,13.53
2018-07-11T04:11:32.711Z,13.53
2018-07-11T04:14:01.662Z,13.49
2018-07-11T04:16:31.979Z,13.50
2018-07-11T04:19:01.701Z,13.54
2018-07-11T04:21:31.996Z,13.56
2018-07-11T04:24:01.370Z,13.63
2018-07-11T04:26:30.769Z,13.66
2018-07-11T04:29:00.210Z,13.69
2018-07-11T04:31:29.517Z,13.73
2018-07-11T04:33:58.778Z,13.80
2018-07-11T04:36:27.988Z,13.91
2018-07-11T04:38:57.273Z,14.07
2018-07-11T04:41:25.641Z,14.08
2018-07-11T04:43:54.001Z,14.23
2018-07-11T04:46:22.373Z,14.43
2018-07-11T04:48:50.728Z,14.41
2018-07-11T04:51:19.999Z,14.46
2018-07-11T04:53:48.377Z,14.61
2018-07-11T04:56:17.622Z,14.73
2018-07-11T04:58:47.019Z,14.92
2018-07-11T05:01:16.479Z,15.06
2018-07-11T05:03:44.850Z,14.89
2018-07-11T05:06:13.834Z,14.97
2018-07-11T05:08:42.180Z,14.71
2018-07-11T05:11:11.550Z,14.67
2018-07-11T05:13:39.861Z,14.60
2018-07-11T05:16:08.248Z,14.62
2018-07-11T05:18:36.673Z,14.54
2018-07-11T05:21:06.428Z,14.52
2018-07-11T05:23:35.345Z,14.47
2018-07-11T05:26:05.758Z,14.55
2018-07-11T05:28:35.782Z,14.55
2018-07-11T05:31:05.577Z,14.56
2018-07-11T05:33:35.099Z,14.51
2018-07-11T05:36:05.198Z,14.49
2018-07-11T05:38:34.924Z,14.48
2018-07-11T05:41:04.434Z,14.56
2018-07-11T05:43:34.682Z,14.57
2018-07-11T05:46:05.006Z,14.58
2018-07-11T05:48:34.964Z,14.64
2018-07-11T05:51:04.157Z,14.64
2018-07-11T05:53:34.416Z,14.74
2018-07-11T05:56:04.158Z,14.90
2018-07-11T05:58:33.680Z,15.05
2018-07-11T06:01:03.280Z,15.15
2018-07-11T06:03:32.762Z,15.37
2018-07-11T06:06:01.723Z,15.55
2018-07-11T06:08:30.082Z,15.63
2018-07-11T06:10:58.428Z,15.63
2018-07-11T06:13:26.865Z,15.80
2018-07-11T06:15:55.181Z,16.02
2018-07-11T06:18:24.796Z,16.13
2018-07-11T06:20:54.021Z,16.36
2018-07-11T06:23:22.376Z,16.51
2018-07-11T06:25:51.636Z,16.42
2018-07-11T06:28:19.970Z,16.72
2018-07-11T06:30:48.316Z,16.55
2018-07-11T06:33:16.652Z,16.58
2018-07-11T06:35:45.413Z,16.33
2018-07-11T06:38:13.746Z,16.51
2018-07-11T06:40:42.082Z,16.63
2018-07-11T06:43:10.409Z,16.70
2018-07-11T06:45:38.741Z,16.95
2018-07-11T06:48:07.082Z,16.87
2018-07-11T06:50:35.465Z,16.86
2018-07-11T06:53:06.022Z,16.73
2018-07-11T06:55:36.373Z,16.98
2018-07-11T06:58:05.362Z,17.05
2018-07-11T07:00:36.334Z,17.22
2018-07-11T07:03:05.703Z,17.24
2018-07-11T07:05:35.442Z,17.42
2018-07-11T07:08:06.422Z,17.47
2018-07-11T07:10:36.745Z,17.65
2018-07-11T07:13:07.517Z,17.47
2018-07-11T07:15:36.937Z,17.71
2018-07-11T07:18:07.552Z,17.80
2018-07-11T07:20:35.881Z,17.86
2018-07-11T07:23:06.065Z,17.66
2018-07-11T07:25:35.375Z,17.61
2018-07-11T07:28:05.137Z,18.09
2018-07-11T07:30:35.350Z,18.52
2018-07-11T07:33:05.117Z,18.26
2018-07-11T07:35:35.552Z,18.29
2018-07-11T07:38:05.270Z,18.02
2018-07-11T07:40:35.354Z,17.87
2018-07-11T07:43:05.750Z,17.84
2018-07-11T07:45:36.008Z,17.80
2018-07-11T07:48:06.353Z,17.60
2018-07-11T07:50:37.120Z,17.78
2018-07-11T07:53:06.345Z,17.55
2018-07-11T07:55:37.136Z,17.60
2018-07-11T07:58:06.769Z,17.55
2018-07-11T08:00:36.542Z,17.84
2018-07-11T08:03:07.237Z,18.20
2018-07-11T08:05:37.550Z,18.26
2018-07-11T08:08:06.754Z,18.25
2018-07-11T08:10:36.013Z,18.72
2018-07-11T08:13:06.134Z,18.70
2018-07-11T08:15:36.897Z,18.92
2018-07-11T08:18:06.052Z,18.96
2018-07-11T08:20:35.427Z,18.81
2018-07-11T08:23:16.389Z,18.91
2018-07-11T08:25:57.201Z,19.10
2018-07-11T08:29:36.653Z,19.28
2018-07-11T08:32:34.480Z,18.94
2018-07-11T08:37:17.109Z,19.19
2018-07-11T08:39:59.969Z,19.22
2018-07-11T08:44:50.452Z,19.19
2018-07-11T08:47:32.909Z,19.38
2018-07-11T08:50:13.561Z,19.20
2018-07-11T08:52:55.001Z,19.16
2018-07-11T08:57:36.526Z,19.39
2018-07-11T09:00:18.064Z,19.30
2018-07-11T09:03:01.783Z,19.53
2018-07-11T09:05:43.621Z,19.75
2018-07-11T09:08:20.573Z,19.92
2018-07-11T09:13:05.142Z,20.11
2018-07-11T09:15:43.965Z,20.74
2018-07-11T09:18:27.112Z,20.60
2018-07-11T09:21:08.558Z,20.71
2018-07-11T09:23:45.781Z,20.70
2018-07-11T09:26:15.121Z,20.64
2018-07-11T09:28:43.448Z,20.85
2018-07-11T09:31:11.784Z,20.86
2018-07-11T09:33:40.131Z,20.96
2018-07-11T09:36:08.587Z,20.70
2018-07-11T09:38:37.041Z,21.12
2018-07-11T09:41:06.053Z,20.96
2018-07-11T09:43:35.378Z,21.16
2018-07-11T09:46:05.373Z,21.18
2018-07-11T09:48:35.644Z,21.19
2018-07-11T09:51:05.953Z,21.49
2018-07-11T09:53:36.178Z,21.74
2018-07-11T09:56:05.121Z,21.57
2018-07-11T09:58:34.805Z,21.62
2018-07-11T10:01:09.389Z,21.62
2018-07-11T10:03:37.736Z,21.79
2018-07-11T10:06:06.057Z,21.56
2018-07-11T10:08:35.325Z,21.54
2018-07-11T10:11:05.118Z,21.21
2018-07-11T10:13:34.862Z,21.45
2018-07-11T10:16:05.034Z,21.12
2018-07-11T10:18:35.151Z,21.60
2018-07-11T10:21:05.440Z,21.95
2018-07-11T10:23:35.873Z,21.71
2018-07-11T10:26:06.726Z,21.31
2018-07-11T10:28:36.397Z,21.16
2018-07-11T10:31:06.037Z,21.00
2018-07-11T10:33:35.783Z,20.93
2018-07-11T10:36:04.704Z,20.38
2018-07-11T10:38:34.316Z,20.38
2018-07-11T10:41:04.325Z,20.50
2018-07-11T10:43:33.866Z,20.67
2018-07-11T10:46:03.165Z,20.95
2018-07-11T10:48:31.921Z,21.08
2018-07-11T10:51:00.234Z,21.28
2018-07-11T10:53:28.608Z,21.47
2018-07-11T10:55:57.066Z,21.77
2018-07-11T10:58:25.422Z,21.98
2018-07-11T11:01:05.695Z,22.29
2018-07-11T11:03:30.565Z,22.52
2018-07-11T11:05:58.892Z,22.87
2018-07-11T11:08:27.978Z,22.81
2018-07-11T11:10:56.321Z,22.65
2018-07-11T11:13:25.193Z,22.56
2018-07-11T11:15:54.393Z,22.44
2018-07-11T11:18:23.316Z,22.21
2018-07-11T11:20:53.076Z,22.46
2018-07-11T11:23:21.507Z,22.04
2018-07-11T11:25:49.867Z,22.51
2018-07-11T11:28:18.225Z,22.39
2018-07-11T11:30:46.552Z,22.43
2018-07-11T11:33:14.882Z,22.34
2018-07-11T11:35:43.414Z,22.44
2018-07-11T11:38:11.641Z,22.01
2018-07-11T11:40:40.019Z,22.00
2018-07-11T11:43:08.369Z,21.99
2018-07-11T11:45:36.705Z,22.05
2018-07-11T11:48:05.686Z,21.87
2018-07-11T11:50:35.901Z,21.71
2018-07-11T11:53:06.321Z,21.99
2018-07-11T11:55:36.593Z,22.03
2018-07-11T11:58:05.933Z,22.04
2018-07-11T12:00:37.496Z,22.41
2018-07-11T12:03:07.353Z,22.04
2018-07-11T12:05:36.453Z,22.30
2018-07-11T12:08:05.283Z,22.40
2018-07-11T12:10:35.628Z,22.63
2018-07-11T12:13:05.276Z,23.11
2018-07-11T12:15:35.697Z,23.40
2018-07-11T12:18:05.155Z,23.43
2018-07-11T12:20:35.686Z,23.53
2018-07-11T12:23:05.165Z,23.40
2018-07-11T12:25:35.827Z,23.33
2018-07-11T12:28:05.811Z,23.46
2018-07-11T12:30:36.647Z,23.45
2018-07-11T12:33:06.133Z,23.09
2018-07-11T12:35:36.693Z,22.76
2018-07-11T12:38:05.825Z,22.71
2018-07-11T12:40:36.013Z,23.00
2018-07-11T12:43:06.787Z,22.90
2018-07-11T12:45:36.013Z,23.47
2018-07-11T12:48:11.522Z,23.67
2018-07-11T12:50:40.930Z,23.90
2018-07-11T12:53:10.145Z,24.23
2018-07-11T12:55:39.322Z,24.17
2018-07-11T12:58:08.549Z,24.43
2018-07-11T13:00:38.265Z,24.19
2018-07-11T13:03:07.621Z,24.40
2018-07-11T13:05:36.812Z,24.14
2018-07-11T13:08:06.096Z,23.88
2018-07-11T13:10:36.545Z,23.00
2018-07-11T13:13:05.817Z,22.87
2018-07-11T13:15:35.415Z,23.46
2018-07-11T13:18:05.541Z,23.73
2018-07-11T13:20:35.704Z,24.20
2018-07-11T13:23:06.913Z,24.16
2018-07-11T13:25:36.330Z,24.30
2018-07-11T13:28:07.120Z,23.74
2018-07-11T13:30:35.996Z,23.22
2018-07-11T13:33:06.307Z,23.28
2018-07-11T13:35:36.995Z,22.96
2018-07-11T13:38:06.386Z,22.89
2018-07-11T13:40:36.007Z,22.77
2018-07-11T13:43:06.237Z,22.88
2018-07-11T13:45:37.103Z,22.70
2018-07-11T13:48:06.439Z,22.65
2018-07-11T13:50:35.988Z,22.26
2018-07-11T13:53:06.329Z,22.10
2018-07-11T13:55:37.009Z,22.45
2018-07-11T13:58:06.639Z,22.46
2018-07-11T14:00:35.870Z,22.62
2018-07-11T14:03:05.450Z,22.62
2018-07-11T14:05:35.174Z,22.82
2018-07-11T14:08:04.583Z,22.50
2018-07-11T14:10:34.072Z,22.53
2018-07-11T14:13:02.964Z,22.72
2018-07-11T14:15:31.996Z,22.79
2018-07-11T14:18:00.353Z,22.62
2018-07-11T14:20:28.686Z,23.06
2018-07-11T14:23:06.506Z,22.84
2018-07-11T14:25:38.808Z,23.50
2018-07-11T14:28:07.170Z,24.01
2018-07-11T14:30:37.312Z,24.27
2018-07-11T14:33:07.825Z,25.13
2018-07-11T14:35:36.605Z,25.82
2018-07-11T14:38:06.116Z,25.90
2018-07-11T14:40:35.871Z,25.93
2018-07-11T14:43:06.327Z,26.08
2018-07-11T14:45:35.772Z,26.62
2018-07-11T14:48:09.678Z,26.17
2018-07-11T14:50:38.009Z,25.92
2018-07-11T14:53:06.696Z,25.02
2018-07-11T14:55:36.454Z,24.44
2018-07-11T14:58:06.027Z,23.93
2018-07-11T15:00:35.205Z,23.62
2018-07-11T15:03:04.769Z,23.60
2018-07-11T15:05:36.283Z,23.28
2018-07-11T15:08:06.345Z,23.11
2018-07-11T15:10:36.947Z,23.00
2018-07-11T15:13:07.486Z,22.67
2018-07-11T15:15:35.835Z,22.48
2018-07-11T15:18:05.506Z,22.39
2018-07-11T15:20:36.071Z,22.45
2018-07-11T15:23:05.956Z,22.41
2018-07-11T15:25:36.037Z,22.33
2018-07-11T15:28:06.665Z,22.39
2018-07-11T15:30:36.008Z,22.25
2018-07-11T15:33:06.587Z,22.38
2018-07-11T15:35:35.388Z,22.29
2018-07-11T15:38:04.433Z,22.22
2018-07-11T15:40:33.819Z,22.95
2018-07-11T15:43:03.326Z,23.28
2018-07-11T15:45:34.475Z,23.77
2018-07-11T15:48:04.393Z,24.93
2018-07-11T15:50:34.985Z,26.05
2018-07-11T15:53:04.917Z,26.00
2018-07-11T15:55:36.470Z,26.00
2018-07-11T15:58:10.636Z,25.53
2018-07-11T16:00:40.432Z,25.10
2018-07-11T16:03:10.364Z,24.71
2018-07-11T16:05:42.077Z,24.55
2018-07-11T16:08:10.395Z,24.15
2018-07-11T16:10:41.377Z,23.82
2018-07-11T16:13:09.712Z,23.71
2018-07-11T16:15:38.077Z,23.69
2018-07-11T16:18:07.657Z,23.59
2018-07-11T16:20:36.462Z,23.73
2018-07-11T16:23:05.856Z,23.81
2018-07-11T16:25:35.217Z,23.96
2018-07-11T16:28:06.216Z,23.71
2018-07-11T16:30:35.498Z,23.70
2018-07-11T16:33:07.908Z,23.57
2018-07-11T16:35:36.264Z,23.66
2018-07-11T16:38:05.958Z,23.25
2018-07-11T16:40:36.390Z,23.14
2018-07-11T16:43:06.436Z,22.87
2018-07-11T16:45:36.189Z,22.65
2018-07-11T16:48:05.944Z,22.56
2018-07-11T16:50:35.415Z,22.52
2018-07-11T16:53:04.352Z,22.43
2018-07-11T16:55:35.928Z,22.21
2018-07-11T16:58:05.336Z,22.09
2018-07-11T17:00:35.115Z,22.23
2018-07-11T17:03:06.689Z,22.04
2018-07-11T17:06:12.781Z,22.00
2018-07-11T17:08:47.986Z,22.01
2018-07-11T17:11:21.844Z,22.20
2018-07-11T17:13:54.521Z,22.06
2018-07-11T17:16:48.029Z,21.73
2018-07-11T17:19:34.696Z,21.63
2018-07-11T17:22:06.749Z,21.57
2018-07-11T17:24:44.577Z,21.58
2018-07-11T17:27:14.185Z,21.67
2018-07-11T17:29:42.817Z,21.79
2018-07-11T17:32:12.361Z,21.89
2018-07-11T17:34:41.280Z,21.93
2018-07-11T17:37:11.011Z,21.90
2018-07-11T17:39:50.191Z,21.97
2018-07-11T17:42:25.251Z,21.93
2018-07-11T17:45:01.095Z,21.94
2018-07-11T17:47:32.107Z,21.80
2018-07-11T17:50:06.442Z,21.94
2018-07-11T17:52:46.325Z,21.78
2018-07-11T17:55:24.847Z,21.57
2018-07-11T17:57:55.420Z,21.79
2018-07-11T18:00:53.044Z,21.74
2018-07-11T18:04:34.333Z,21.95
2018-07-11T18:07:11.421Z,21.85
2018-07-11T18:09:58.932Z,21.77
2018-07-11T18:12:33.848Z,21.84
2018-07-11T18:16:11.098Z,21.82
2018-07-11T18:18:55.009Z,21.77
2018-07-11T18:21:34.578Z,21.60
2018-07-11T18:26:18.257Z,21.42
2018-07-11T18:31:05.101Z,21.33
2018-07-11T18:33:44.799Z,21.16
2018-07-11T18:36:23.783Z,21.01
2018-07-11T18:39:00.357Z,20.87
2018-07-11T18:41:36.689Z,20.67
2018-07-11T18:44:17.441Z,20.63
2018-07-11T18:46:57.273Z,20.45
2018-07-11T18:49:44.737Z,20.31
2018-07-11T18:52:21.662Z,20.25
2018-07-11T18:54:57.220Z,20.13
2018-07-11T18:57:32.130Z,19.60
2018-07-11T19:00:10.305Z,19.44
2018-07-11T19:03:05.161Z,18.95
2018-07-11T19:05:45.301Z,18.79
2018-07-11T19:08:23.185Z,18.12
2018-07-11T19:11:24.613Z,17.77
2018-07-11T19:14:02.363Z,17.39
2018-07-11T19:17:05.173Z,17.04
2018-07-11T19:19:37.450Z,16.67
2018-07-11T19:22:19.565Z,16.17
2018-07-11T19:24:59.222Z,16.19
2018-07-11T19:27:38.274Z,15.97
2018-07-11T19:30:12.177Z,15.87
2018-07-11T19:33:49.453Z,15.92
2018-07-11T19:36:38.416Z,15.81
2018-07-11T19:39:12.469Z,15.81
2018-07-11T19:42:12.207Z,15.75
2018-07-11T19:45:01.885Z,15.69
2018-07-11T19:47:41.458Z,15.70
2018-07-11T19:50:25.676Z,15.67
2018-07-11T19:53:05.884Z,15.82
2018-07-11T19:55:47.817Z,15.83
2018-07-11T19:58:16.203Z,15.77
2018-07-11T20:00:44.714Z,15.82
2018-07-11T20:03:13.070Z,15.78
2018-07-11T20:05:53.340Z,15.71
2018-07-11T20:08:12.164Z,15.79
2018-07-11T20:10:41.429Z,15.83
2018-07-11T20:13:09.869Z,15.91
2018-07-11T20:15:38.266Z,15.80
2018-07-11T20:18:06.656Z,15.85
2018-07-11T20:20:36.045Z,15.64
2018-07-11T20:23:06.240Z,15.71
2018-07-11T20:25:35.965Z,15.67
2018-07-11T20:28:05.928Z,15.65
2018-07-11T20:30:36.054Z,15.58
2018-07-11T20:33:05.911Z,15.61
2018-07-11T20:35:35.007Z,15.61
2018-07-11T20:38:06.038Z,15.55
2018-07-11T20:40:35.914Z,15.50
2018-07-11T20:43:06.963Z,15.52
2018-07-11T20:45:36.656Z,15.54
2018-07-11T20:48:09.254Z,15.65
2018-07-11T20:50:38.640Z,15.57
2018-07-11T20:53:07.086Z,15.67
2018-07-11T20:55:35.933Z,15.63
2018-07-11T20:59:19.209Z,15.66
2018-07-11T21:01:57.612Z,15.71
2018-07-11T21:04:46.150Z,15.66
2018-07-11T21:08:27.497Z,15.69
2018-07-11T21:11:06.989Z,15.74
2018-07-11T21:13:46.388Z,15.58
2018-07-11T21:18:57.476Z,15.64
2018-07-11T21:21:25.894Z,15.74
2018-07-11T21:23:54.434Z,15.76
2018-07-11T21:26:22.834Z,15.72
2018-07-11T21:28:51.480Z,15.67
2018-07-11T21:31:19.837Z,15.65
2018-07-11T21:33:48.483Z,15.51
2018-07-11T21:36:17.034Z,15.51
2018-07-11T21:38:45.393Z,15.48
2018-07-11T21:41:14.401Z,15.55
2018-07-11T21:43:43.660Z,15.50
2018-07-11T21:46:14.453Z,15.52
2018-07-11T21:48:44.049Z,15.42
2018-07-11T21:51:13.405Z,15.42
2018-07-11T21:53:42.757Z,15.36
2018-07-11T21:56:12.610Z,15.32
2018-07-11T21:58:41.193Z,15.34
2018-07-11T22:01:10.769Z,15.40
2018-07-11T22:03:40.004Z,15.46
2018-07-11T22:06:09.364Z,15.47
2018-07-11T22:08:38.593Z,15.52
2018-07-11T22:11:06.937Z,15.42
2018-07-11T22:13:36.469Z,15.39
2018-07-11T22:16:06.162Z,15.36
2018-07-11T22:18:40.879Z,15.44
2018-07-11T22:21:09.281Z,15.46
2018-07-11T22:23:36.656Z,15.44
2018-07-11T22:26:05.125Z,15.39
2018-07-11T22:28:32.906Z,15.38
2018-07-11T22:31:00.197Z,15.31
2018-07-11T22:33:28.265Z,15.35
2018-07-11T22:35:55.587Z,15.27
2018-07-11T22:38:22.873Z,15.26
2018-07-11T22:40:50.150Z,15.28
2018-07-11T22:43:17.432Z,15.37
2018-07-11T22:45:44.705Z,15.34
2018-07-11T22:48:11.997Z,15.37
2018-07-11T22:50:39.305Z,15.35
2018-07-11T22:53:06.592Z,15.36
2018-07-11T22:55:34.267Z,15.27
2018-07-11T22:58:01.796Z,15.29
2018-07-11T23:00:29.590Z,15.25
2018-07-11T23:02:56.869Z,15.20
2018-07-11T23:05:24.955Z,15.17
2018-07-11T23:07:52.241Z,15.12
2018-07-11T23:10:19.565Z,15.11
2018-07-11T23:12:46.839Z,15.20
2018-07-11T23:15:14.141Z,15.19
2018-07-11T23:17:42.217Z,15.16
2018-07-11T23:20:10.285Z,15.13
2018-07-11T23:22:37.569Z,15.09
2018-07-11T23:25:05.238Z,15.14
2018-07-11T23:27:34.086Z,15.15
2018-07-11T23:30:01.380Z,15.18
2018-07-11T23:32:28.662Z,15.22
2018-07-11T23:34:55.963Z,15.20
2018-07-11T23:37:24.024Z,15.23
2018-07-11T23:39:51.313Z,15.24
2018-07-11T23:42:18.617Z,15.20
2018-07-11T23:44:45.905Z,15.21
2018-07-11T23:47:13.996Z,15.25
2018-07-11T23:49:41.283Z,15.20
2018-07-11T23:52:08.569Z,15.21
2018-07-11T23:54:35.861Z,15.21
2018-07-11T23:57:04.697Z,15.18
2018-07-11T23:59:32.401Z,15.17
